sensor_id;sensor_type;location;lat;lon;timestamp;pressure;altitude;pressure_sealevel;temperature;humidity
31011;BME280;26395;53.412;19.598;2023-02-21T00:18:01;98861.60;;;9.38;72.87
31011;BME280;26395;53.412;19.598;2023-02-21T00:33:23;98859.75;;;9.19;72.20
31011;BME280;26395;53.412;19.598;2023-02-21T00:48:47;98856.86;;;8.98;75.82
31011;BME280;26395;53.412;19.598;2023-02-21T01:04:09;98859.30;;;8.92;76.01
31011;BME280;26395;53.412;19.598;2023-02-21T01:19:31;98872.33;;;8.95;74.80
31011;BME280;26395;53.412;19.598;2023-02-21T01:34:53;98856.33;;;8.98;73.97
31011;BME280;26395;53.412;19.598;2023-02-21T01:50:22;98836.11;;;8.93;74.34
31011;BME280;26395;53.412;19.598;2023-02-21T02:05:49;98836.58;;;8.70;76.49
31011;BME280;26395;53.412;19.598;2023-02-21T02:36:27;98839.77;;;8.71;77.96
31011;BME280;26395;53.412;19.598;2023-02-21T02:51:33;98847.75;;;8.63;78.79
31011;BME280;26395;53.412;19.598;2023-02-21T03:06:57;98843.87;;;8.50;79.15
31011;BME280;26395;53.412;19.598;2023-02-21T03:22:07;98840.70;;;8.50;78.17
31011;BME280;26395;53.412;19.598;2023-02-21T03:37:42;98838.73;;;8.54;76.44
31011;BME280;26395;53.412;19.598;2023-02-21T03:52:46;98843.64;;;8.59;76.57
31011;BME280;26395;53.412;19.598;2023-02-21T04:07:50;98863.67;;;8.44;78.42
31011;BME280;26395;53.412;19.598;2023-02-21T04:22:54;98855.79;;;8.20;79.85
31011;BME280;26395;53.412;19.598;2023-02-21T04:38:05;98862.36;;;7.90;84.68
31011;BME280;26395;53.412;19.598;2023-02-21T04:53:10;98877.55;;;7.88;85.30
31011;BME280;26395;53.412;19.598;2023-02-21T05:08:16;98873.06;;;7.75;87.72
31011;BME280;26395;53.412;19.598;2023-02-21T05:23:19;98904.63;;;7.66;90.22
31011;BME280;26395;53.412;19.598;2023-02-21T05:38:56;98915.15;;;7.52;91.64
31011;BME280;26395;53.412;19.598;2023-02-21T05:53:59;98921.92;;;7.48;92.86
31011;BME280;26395;53.412;19.598;2023-02-21T06:09:03;98940.42;;;7.46;94.66
31011;BME280;26395;53.412;19.598;2023-02-21T06:24:07;98956.00;;;7.41;96.56
31011;BME280;26395;53.412;19.598;2023-02-21T06:39:13;98981.17;;;7.47;96.41
31011;BME280;26395;53.412;19.598;2023-02-21T06:54:20;99006.06;;;7.40;97.65
31011;BME280;26395;53.412;19.598;2023-02-21T07:09:25;99033.31;;;7.59;97.28
31011;BME280;26395;53.412;19.598;2023-02-21T07:24:30;99064.19;;;7.69;97.00
31011;BME280;26395;53.412;19.598;2023-02-21T07:39:36;99085.01;;;7.72;97.05
31011;BME280;26395;53.412;19.598;2023-02-21T07:54:40;99108.91;;;7.80;97.34
31011;BME280;26395;53.412;19.598;2023-02-21T08:09:43;99129.98;;;8.02;96.57
31011;BME280;26395;53.412;19.598;2023-02-21T08:24:49;99158.36;;;8.39;95.13
31011;BME280;26395;53.412;19.598;2023-02-21T08:39:53;99184.65;;;8.65;93.74
31011;BME280;26395;53.412;19.598;2023-02-21T08:54:56;99201.31;;;8.67;93.09
31011;BME280;26395;53.412;19.598;2023-02-21T09:10:00;99215.45;;;8.80;92.27
31011;BME280;26395;53.412;19.598;2023-02-21T09:30:25;99239.49;;;9.12;89.95
31011;BME280;26395;53.412;19.598;2023-02-21T09:45:34;99260.27;;;9.63;86.36
31011;BME280;26395;53.412;19.598;2023-02-21T10:00:39;99280.62;;;9.89;83.60
31011;BME280;26395;53.412;19.598;2023-02-21T10:16:07;99301.17;;;10.00;82.66
31011;BME280;26395;53.412;19.598;2023-02-21T10:31:29;99320.75;;;10.08;81.25
31011;BME280;26395;53.412;19.598;2023-02-21T10:46:39;99339.41;;;9.96;83.05
31011;BME280;26395;53.412;19.598;2023-02-21T11:01:45;99361.42;;;9.82;84.01
31011;BME280;26395;53.412;19.598;2023-02-21T11:17:22;99383.65;;;9.62;85.05
31011;BME280;26395;53.412;19.598;2023-02-21T11:32:28;99397.88;;;9.59;86.42
31011;BME280;26395;53.412;19.598;2023-02-21T11:47:40;99410.80;;;9.51;87.43
31011;BME280;26395;53.412;19.598;2023-02-21T12:33:40;99452.28;;;9.57;85.57
31011;BME280;26395;53.412;19.598;2023-02-21T12:49:13;99457.17;;;9.51;84.45
31011;BME280;26395;53.412;19.598;2023-02-21T13:19:32;99477.69;;;9.86;79.86
31011;BME280;26395;53.412;19.598;2023-02-21T13:34:45;99490.83;;;10.00;77.72
31011;BME280;26395;53.412;19.598;2023-02-21T13:49:56;99513.73;;;9.96;77.77
31011;BME280;26395;53.412;19.598;2023-02-21T14:05:04;99528.40;;;9.77;78.14
31011;BME280;26395;53.412;19.598;2023-02-21T14:20:15;99538.56;;;9.81;77.36
31011;BME280;26395;53.412;19.598;2023-02-21T14:35:42;99552.77;;;9.81;77.02
31011;BME280;26395;53.412;19.598;2023-02-21T15:06:12;99581.77;;;9.88;75.64
31011;BME280;26395;53.412;19.598;2023-02-21T15:21:20;99595.34;;;9.81;75.83
31011;BME280;26395;53.412;19.598;2023-02-21T15:36:25;99618.96;;;9.75;75.11
31011;BME280;26395;53.412;19.598;2023-02-21T15:51:29;99629.99;;;9.73;74.27
31011;BME280;26395;53.412;19.598;2023-02-21T16:06:33;99645.61;;;9.69;74.50
31011;BME280;26395;53.412;19.598;2023-02-21T16:21:38;99673.99;;;9.73;74.67
31011;BME280;26395;53.412;19.598;2023-02-21T16:36:41;99697.05;;;9.56;75.71
31011;BME280;26395;53.412;19.598;2023-02-21T16:51:46;99715.82;;;9.34;75.96
31011;BME280;26395;53.412;19.598;2023-02-21T17:06:55;99736.40;;;9.15;76.03
31011;BME280;26395;53.412;19.598;2023-02-21T17:21:59;99768.19;;;9.07;76.43
31011;BME280;26395;53.412;19.598;2023-02-21T17:37:03;99798.11;;;8.88;78.82
31011;BME280;26395;53.412;19.598;2023-02-21T17:52:07;99814.59;;;8.51;80.78
31011;BME280;26395;53.412;19.598;2023-02-21T18:07:10;99821.65;;;8.35;82.41
31011;BME280;26395;53.412;19.598;2023-02-21T18:22:14;99838.80;;;8.24;82.95
31011;BME280;26395;53.412;19.598;2023-02-21T18:37:18;99861.02;;;8.13;83.48
31011;BME280;26395;53.412;19.598;2023-02-21T18:52:22;99883.79;;;8.09;83.50
31011;BME280;26395;53.412;19.598;2023-02-21T19:07:25;99907.13;;;8.26;83.51
31011;BME280;26395;53.412;19.598;2023-02-21T19:22:29;99951.41;;;7.91;83.36
31011;BME280;26395;53.412;19.598;2023-02-21T19:37:32;99958.89;;;7.62;84.77
31011;BME280;26395;53.412;19.598;2023-02-21T19:52:38;99978.16;;;7.42;85.80
31011;BME280;26395;53.412;19.598;2023-02-21T20:07:43;100004.75;;;7.09;86.41
31011;BME280;26395;53.412;19.598;2023-02-21T20:22:47;100017.05;;;6.85;86.37
31011;BME280;26395;53.412;19.598;2023-02-21T20:37:52;100029.22;;;6.64;87.41
31011;BME280;26395;53.412;19.598;2023-02-21T20:52:57;100039.39;;;6.63;87.19
31011;BME280;26395;53.412;19.598;2023-02-21T21:08:00;100058.86;;;6.59;88.15
31011;BME280;26395;53.412;19.598;2023-02-21T21:23:05;100078.31;;;6.65;89.15
31011;BME280;26395;53.412;19.598;2023-02-21T21:38:09;100100.02;;;6.54;89.17
31011;BME280;26395;53.412;19.598;2023-02-21T21:53:14;100118.73;;;6.38;88.61
31011;BME280;26395;53.412;19.598;2023-02-21T22:08:19;100132.63;;;6.14;88.57
31011;BME280;26395;53.412;19.598;2023-02-21T22:23:25;100140.15;;;5.96;88.13
31011;BME280;26395;53.412;19.598;2023-02-21T22:38:29;100170.20;;;5.70;88.09
31011;BME280;26395;53.412;19.598;2023-02-21T22:53:33;100188.15;;;5.54;87.92
31011;BME280;26395;53.412;19.598;2023-02-21T23:08:37;100214.88;;;5.56;89.20
31011;BME280;26395;53.412;19.598;2023-02-21T23:23:41;100231.15;;;5.67;88.86
31011;BME280;26395;53.412;19.598;2023-02-21T23:38:44;100254.42;;;5.72;88.68
31011;BME280;26395;53.412;19.598;2023-02-21T23:53:48;100270.02;;;5.82;88.93
